createdAt,value
2022-09-01T00:00:30.146Z,2.5
2022-09-01T00:05:30.109Z,2.5
2022-09-01T00:10:30.097Z,357.5
2022-09-01T00:15:30.134Z,357.5
2022-09-01T00:20:30.099Z,342.5
2022-09-01T00:25:30.104Z,342.5
2022-09-01T00:30:30.096Z,347.5
2022-09-01T00:35:30.103Z,340
2022-09-01T00:40:30.126Z,357.5
2022-09-01T00:45:30.118Z,2.5
2022-09-01T00:50:30.107Z,2.5
2022-09-01T00:55:30.106Z,355
2022-09-01T01:00:30.102Z,355
2022-09-01T01:05:30.099Z,355
2022-09-01T01:10:30.099Z,357.5
2022-09-01T01:15:30.103Z,10
2022-09-01T01:20:30.090Z,10
2022-09-01T01:25:30.105Z,2.5
2022-09-01T01:30:30.122Z,10
2022-09-01T01:35:30.110Z,0
2022-09-01T01:40:30.177Z,0
2022-09-01T01:45:30.099Z,12.5
2022-09-01T01:50:30.105Z,5
2022-09-01T01:55:30.099Z,10
2022-09-01T02:00:30.922Z,0
2022-09-01T02:05:30.101Z,10
2022-09-01T02:10:30.084Z,7.5
2022-09-01T02:15:30.104Z,5
2022-09-01T02:20:30.098Z,5
2022-09-01T02:25:30.098Z,17.5
2022-09-01T02:30:30.108Z,12.5
2022-09-01T02:35:30.096Z,10
2022-09-01T02:40:30.128Z,12.5
2022-09-01T02:45:30.136Z,7.5
2022-09-01T02:50:30.101Z,17.5
2022-09-01T02:55:30.091Z,12.5
2022-09-01T03:00:30.087Z,12.5
2022-09-01T03:05:30.094Z,10
2022-09-01T03:10:30.103Z,15
2022-09-01T03:15:30.097Z,12.5
2022-09-01T03:20:30.095Z,5
2022-09-01T03:25:30.107Z,12.5
2022-09-01T03:30:30.097Z,12.5
2022-09-01T03:35:30.093Z,2.5
2022-09-01T03:40:30.199Z,5
2022-09-01T03:45:30.182Z,12.5
2022-09-01T03:50:30.087Z,10
2022-09-01T03:55:30.111Z,12.5
2022-09-01T04:00:30.103Z,20
2022-09-01T04:05:30.104Z,7.5
2022-09-01T04:10:30.101Z,10
2022-09-01T04:15:30.111Z,10
2022-09-01T04:20:30.097Z,15
2022-09-01T04:25:30.102Z,12.5
2022-09-01T04:30:30.092Z,20
2022-09-01T04:35:30.096Z,12.5
2022-09-01T04:40:30.186Z,10
2022-09-01T04:45:30.222Z,15
2022-09-01T04:50:30.105Z,5
2022-09-01T04:55:30.096Z,17.5
2022-09-01T05:00:30.097Z,12.5
2022-09-01T05:05:30.105Z,12.5
2022-09-01T05:10:30.326Z,10
2022-09-01T05:15:30.115Z,10
2022-09-01T05:20:30.096Z,20
2022-09-01T05:25:30.104Z,17.5
2022-09-01T05:30:30.101Z,15
2022-09-01T05:35:32.612Z,15
2022-09-01T05:40:30.170Z,25
2022-09-01T05:45:40.216Z,37.5
2022-09-01T05:50:30.111Z,37.5
2022-09-01T05:55:30.111Z,22.5
2022-09-01T06:00:30.109Z,22.5
2022-09-01T06:05:30.116Z,25
2022-09-01T06:10:30.106Z,25
2022-09-01T06:15:30.092Z,20
2022-09-01T06:20:30.100Z,35
2022-09-01T06:25:30.101Z,32.5
2022-09-01T06:30:30.106Z,20
2022-09-01T06:35:30.097Z,25
2022-09-01T06:40:30.122Z,20
2022-09-01T06:45:30.100Z,30
2022-09-01T06:55:30.097Z,47.5
2022-09-01T07:00:30.090Z,50
2022-09-01T07:10:30.098Z,65
2022-09-01T07:20:30.101Z,55
2022-09-01T07:25:34.889Z,55
2022-09-01T07:30:30.100Z,55
2022-09-01T07:35:30.095Z,50
2022-09-01T07:45:30.103Z,60
2022-09-01T07:55:30.101Z,57.5
2022-09-01T08:00:31.030Z,67.5
2022-09-01T08:05:30.094Z,65
2022-09-01T08:10:30.095Z,70
2022-09-01T08:20:30.099Z,60
2022-09-01T08:25:30.098Z,82.5
2022-09-01T08:30:30.098Z,92.5
2022-09-01T08:35:30.093Z,75
2022-09-01T08:40:30.133Z,80
2022-09-01T08:45:30.111Z,95
2022-09-01T08:50:30.090Z,82.5
2022-09-01T08:55:30.102Z,50
2022-09-01T09:00:30.109Z,62.5
2022-09-01T09:05:30.097Z,50
2022-09-01T09:10:30.095Z,55
2022-09-01T09:15:30.172Z,55
2022-09-01T09:20:30.106Z,60
2022-09-01T09:25:30.101Z,47.5
2022-09-01T09:30:30.101Z,75
2022-09-01T09:35:30.094Z,92.5
2022-09-01T09:40:30.120Z,92.5
2022-09-01T09:45:30.095Z,102.5
2022-09-01T09:50:30.096Z,70
2022-09-01T09:55:30.112Z,70
2022-09-01T10:00:30.097Z,80
2022-09-01T10:05:30.527Z,62.5
2022-09-01T10:10:30.106Z,47.5
2022-09-01T10:15:30.202Z,65
2022-09-01T10:20:30.108Z,70
2022-09-01T10:25:32.411Z,47.5
2022-09-01T10:30:30.171Z,70
2022-09-01T10:35:30.094Z,65
2022-09-01T10:40:31.275Z,70
2022-09-01T10:45:30.101Z,65
2022-09-01T10:50:35.323Z,60
2022-09-01T10:55:32.333Z,57.5
2022-09-01T11:00:37.435Z,62.5
2022-09-01T11:05:33.308Z,60
2022-09-01T11:10:32.645Z,70
2022-09-01T11:15:30.105Z,70
2022-09-01T11:20:30.095Z,75
2022-09-01T11:25:38.540Z,85
2022-09-01T11:30:30.089Z,95
2022-09-01T11:35:30.114Z,95
2022-09-01T11:40:32.388Z,77.5
2022-09-01T11:45:30.143Z,82.5
2022-09-01T11:50:30.104Z,82.5
2022-09-01T11:55:30.121Z,57.5
2022-09-01T12:00:30.107Z,57.5
2022-09-01T12:05:30.110Z,57.5
2022-09-01T12:10:30.096Z,55
2022-09-01T12:15:30.103Z,65
2022-09-01T12:20:30.152Z,52.5
2022-09-01T12:25:30.095Z,55
2022-09-01T12:30:30.086Z,60
2022-09-01T12:35:30.097Z,60
2022-09-01T12:40:30.633Z,67.5
2022-09-01T12:45:30.132Z,52.5
2022-09-01T12:50:30.187Z,50
2022-09-01T13:00:30.101Z,80
2022-09-01T13:05:32.844Z,55
2022-09-01T13:10:30.088Z,97.5
2022-09-01T13:15:30.105Z,95
2022-09-01T13:20:30.094Z,95
2022-09-01T13:25:30.087Z,130
2022-09-01T13:30:30.091Z,70
2022-09-01T13:35:30.097Z,120
2022-09-01T13:40:30.155Z,112.5
2022-09-01T13:45:30.118Z,80
2022-09-01T13:51:13.949Z,35
2022-09-01T13:55:30.103Z,110
2022-09-01T14:00:30.099Z,122.5
2022-09-01T14:05:30.104Z,95
2022-09-01T14:10:30.099Z,75
2022-09-01T14:15:30.102Z,75
2022-09-01T14:20:30.101Z,75
2022-09-01T14:25:30.096Z,107.5
2022-09-01T14:30:31.586Z,75
2022-09-01T14:35:30.094Z,117.5
2022-09-01T14:40:30.154Z,82.5
2022-09-01T14:45:30.100Z,95
2022-09-01T14:50:30.105Z,102.5
2022-09-01T14:55:30.105Z,90
2022-09-01T15:00:30.220Z,90
2022-09-01T15:05:30.108Z,105
2022-09-01T15:10:30.100Z,80
2022-09-01T15:15:30.115Z,110
2022-09-01T15:20:30.109Z,110
2022-09-01T15:25:30.104Z,97.5
2022-09-01T15:30:30.090Z,105
2022-09-01T15:35:30.098Z,125
2022-09-01T15:40:30.180Z,82.5
2022-09-01T15:45:30.165Z,80
2022-09-01T15:50:30.093Z,90
2022-09-01T15:55:30.107Z,100
2022-09-01T16:00:30.165Z,95
2022-09-01T16:05:30.108Z,87.5
2022-09-01T16:10:31.323Z,105
2022-09-01T16:15:30.097Z,82.5
2022-09-01T16:20:30.096Z,85
2022-09-01T16:25:30.109Z,117.5
2022-09-01T16:30:30.099Z,107.5
2022-09-01T16:35:30.092Z,110
2022-09-01T16:40:30.226Z,85
2022-09-01T16:45:30.100Z,70
2022-09-01T16:50:30.099Z,82.5
2022-09-01T16:55:30.103Z,95
2022-09-01T17:00:30.151Z,95
2022-09-01T17:05:30.104Z,87.5
2022-09-01T17:10:30.094Z,92.5
2022-09-01T17:15:30.118Z,102.5
2022-09-01T17:20:30.108Z,92.5
2022-09-01T17:25:30.098Z,87.5
2022-09-01T17:30:30.107Z,95
2022-09-01T17:35:30.103Z,87.5
2022-09-01T17:40:30.153Z,102.5
2022-09-01T17:45:30.097Z,75
2022-09-01T17:50:30.107Z,70
2022-09-01T17:55:30.098Z,65
2022-09-01T18:00:30.101Z,60
2022-09-01T18:05:30.159Z,50
2022-09-01T18:10:30.086Z,72.5
2022-09-01T18:15:30.114Z,62.5
2022-09-01T18:20:30.100Z,65
2022-09-01T18:25:30.113Z,65
2022-09-01T18:30:43.019Z,67.5
2022-09-01T18:35:30.100Z,92.5
2022-09-01T18:40:30.141Z,242.5
2022-09-01T18:45:30.116Z,290
2022-09-01T18:50:30.100Z,262.5
2022-09-01T18:55:30.106Z,332.5
2022-09-01T19:00:30.699Z,285
2022-09-01T19:05:33.195Z,290
2022-09-01T19:10:30.093Z,275
2022-09-01T19:15:30.185Z,275
2022-09-01T19:20:30.103Z,292.5
2022-09-01T19:25:30.117Z,302.5
2022-09-01T19:30:30.091Z,312.5
2022-09-01T19:35:30.102Z,327.5
2022-09-01T19:40:30.230Z,340
2022-09-01T19:45:30.099Z,340
2022-09-01T19:50:30.108Z,10
2022-09-01T19:55:31.318Z,355
2022-09-01T20:00:30.099Z,325
2022-09-01T20:05:30.099Z,50
2022-09-01T20:10:30.102Z,52.5
2022-09-01T20:15:30.148Z,40
2022-09-01T20:20:30.094Z,20
2022-09-01T20:25:30.101Z,25
2022-09-01T20:30:30.100Z,27.5
2022-09-01T20:35:30.104Z,40
2022-09-01T20:40:30.135Z,40
2022-09-01T20:45:30.103Z,32.5
2022-09-01T20:50:30.093Z,42.5
2022-09-01T20:55:30.109Z,15
2022-09-01T21:00:30.101Z,25
2022-09-01T21:05:30.089Z,22.5
2022-09-01T21:10:30.098Z,15
2022-09-01T21:15:30.091Z,27.5
2022-09-01T21:20:30.095Z,0
2022-09-01T21:25:30.104Z,5
2022-09-01T21:30:30.151Z,10
2022-09-01T21:35:30.115Z,335
2022-09-01T21:40:30.187Z,345
2022-09-01T21:45:30.102Z,332.5
2022-09-01T21:50:30.110Z,322.5
2022-09-01T21:55:30.109Z,300
2022-09-01T22:00:30.094Z,290
2022-09-01T22:05:30.099Z,327.5
2022-09-01T22:10:30.095Z,337.5
2022-09-01T22:15:30.103Z,330
2022-09-01T22:20:30.094Z,347.5
2022-09-01T22:25:30.103Z,5
2022-09-01T22:30:30.156Z,5
2022-09-01T22:35:30.096Z,2.5
2022-09-01T22:40:30.273Z,7.5
2022-09-01T22:45:30.198Z,342.5
2022-09-01T22:50:30.088Z,342.5
2022-09-01T22:55:30.108Z,10
2022-09-01T23:00:30.095Z,10
2022-09-01T23:05:30.097Z,2.5
2022-09-01T23:10:30.100Z,17.5
2022-09-01T23:15:30.105Z,35
2022-09-01T23:20:30.092Z,17.5
2022-09-01T23:25:30.109Z,22.5
2022-09-01T23:30:30.094Z,10
2022-09-01T23:35:30.108Z,17.5
2022-09-01T23:40:30.162Z,15
2022-09-01T23:45:32.676Z,15
2022-09-01T23:50:30.090Z,0
2022-09-01T23:55:30.109Z,12.5
